createdAt,value
2022-08-10T00:01:55.736Z,17.30
2022-08-10T00:08:58.403Z,17.20
2022-08-10T00:16:01.715Z,17.14
2022-08-10T00:23:04.588Z,17.10
2022-08-10T00:30:07.856Z,17.10
2022-08-10T00:37:11.007Z,17.00
2022-08-10T00:44:13.874Z,17.00
2022-08-10T00:51:15.905Z,16.90
2022-08-10T00:58:19.242Z,16.90
2022-08-10T01:05:02.801Z,16.90
2022-08-10T01:12:40.272Z,16.80
2022-08-10T01:19:49.088Z,16.72
2022-08-10T01:27:28.853Z,16.60
2022-08-10T01:34:36.462Z,16.56
2022-08-10T01:41:54.765Z,16.60
2022-08-10T01:49:00.686Z,16.50
2022-08-10T01:56:02.441Z,16.46
2022-08-10T02:03:17.617Z,16.24
2022-08-10T02:10:23.102Z,16.00
2022-08-10T02:17:58.264Z,15.90
2022-08-10T02:24:47.919Z,15.90
2022-08-10T02:31:51.391Z,15.90
2022-08-10T02:38:58.654Z,15.90
2022-08-10T02:46:06.387Z,15.70
2022-08-10T02:53:56.274Z,15.70
2022-08-10T03:00:47.792Z,15.62
2022-08-10T03:07:45.261Z,15.60
2022-08-10T03:14:37.079Z,15.50
2022-08-10T03:21:30.524Z,15.60
2022-08-10T03:28:33.605Z,15.50
2022-08-10T03:35:36.599Z,15.40
2022-08-10T03:42:42.636Z,15.30
2022-08-10T03:49:44.873Z,15.30
2022-08-10T03:56:48.098Z,15.30
2022-08-10T04:03:50.979Z,15.40
2022-08-10T04:11:07.172Z,15.50
2022-08-10T04:18:09.185Z,15.50
2022-08-10T04:25:12.130Z,15.60
2022-08-10T04:32:15.426Z,15.60
2022-08-10T04:39:18.367Z,15.70
2022-08-10T04:46:42.526Z,15.70
2022-08-10T04:53:27.183Z,15.90
2022-08-10T05:00:30.895Z,16.00
2022-08-10T05:07:27.058Z,16.20
2022-08-10T05:14:30.043Z,16.30
2022-08-10T05:21:52.011Z,16.60
2022-08-10T05:28:48.822Z,16.80
2022-08-10T05:35:57.671Z,17.02
2022-08-10T05:43:01.532Z,17.24
2022-08-10T05:50:05.002Z,17.42
2022-08-10T05:57:08.151Z,17.70
2022-08-10T06:04:04.585Z,18.00
2022-08-10T06:12:28.589Z,18.16
2022-08-10T06:18:30.896Z,18.30
2022-08-10T06:33:00.036Z,18.80
2022-08-10T06:40:03.392Z,19.00
2022-08-10T06:47:09.616Z,19.20
2022-08-10T06:54:13.704Z,19.40
2022-08-10T07:01:09.213Z,19.60
2022-08-10T07:08:11.143Z,19.90
2022-08-10T07:15:14.142Z,20.20
2022-08-10T07:22:11.021Z,20.40
2022-08-10T07:29:53.472Z,20.62
2022-08-10T07:36:50.677Z,20.82
2022-08-10T07:43:54.262Z,21.00
2022-08-10T07:50:57.245Z,21.30
2022-08-10T07:58:00.163Z,21.50
2022-08-10T08:05:03.315Z,21.70
2022-08-10T08:12:06.397Z,21.90
2022-08-10T08:19:27.284Z,22.00
2022-08-10T08:26:31.932Z,22.12
2022-08-10T08:33:41.995Z,22.40
2022-08-10T08:40:38.511Z,22.60
2022-08-10T08:48:11.805Z,22.80
2022-08-10T08:56:01.433Z,23.10
2022-08-10T09:02:54.698Z,23.38
2022-08-10T09:10:01.916Z,23.06
2022-08-10T09:17:19.525Z,22.90
2022-08-10T09:24:34.184Z,23.00
2022-08-10T09:32:54.926Z,23.40
2022-08-10T09:40:06.667Z,23.90
2022-08-10T09:47:02.282Z,24.20
2022-08-10T09:54:23.350Z,24.10
2022-08-10T10:02:02.592Z,24.10
2022-08-10T10:09:10.358Z,24.00
2022-08-10T10:16:44.710Z,24.10
2022-08-10T10:24:20.380Z,24.26
2022-08-10T10:31:23.845Z,24.40
2022-08-10T10:38:19.770Z,24.70
2022-08-10T10:45:50.206Z,24.50
2022-08-10T10:53:27.796Z,24.20
2022-08-10T11:00:43.388Z,24.58
2022-08-10T11:07:58.569Z,24.90
2022-08-10T11:15:19.821Z,24.92
2022-08-10T11:22:08.140Z,24.90
2022-08-10T11:29:25.770Z,25.10
2022-08-10T11:36:37.484Z,25.20
2022-08-10T11:43:58.899Z,25.30
2022-08-10T11:51:28.817Z,25.20
2022-08-10T11:58:32.874Z,25.40
2022-08-10T12:05:53.923Z,25.60
2022-08-10T12:12:45.443Z,25.70
2022-08-10T12:19:31.219Z,25.40
2022-08-10T12:27:13.259Z,25.00
2022-08-10T12:34:37.883Z,25.30
2022-08-10T12:41:43.410Z,25.50
2022-08-10T12:49:00.989Z,25.50
2022-08-10T12:56:04.307Z,25.60
2022-08-10T13:03:07.218Z,25.90
2022-08-10T13:10:10.520Z,25.90
2022-08-10T13:17:13.590Z,25.50
2022-08-10T13:24:29.828Z,25.20
2022-08-10T13:32:03.252Z,25.30
2022-08-10T13:38:49.251Z,25.50
2022-08-10T13:46:01.596Z,25.50
2022-08-10T13:53:04.629Z,25.50
2022-08-10T14:00:36.525Z,25.64
2022-08-10T14:07:36.252Z,25.70
2022-08-10T14:14:42.242Z,25.60
2022-08-10T14:21:51.242Z,25.70
2022-08-10T14:28:54.265Z,25.70
2022-08-10T14:36:20.366Z,25.70
2022-08-10T14:43:28.569Z,25.70
2022-08-10T14:50:32.132Z,25.70
2022-08-10T14:57:15.863Z,25.42
2022-08-10T15:04:08.868Z,25.20
2022-08-10T15:12:14.079Z,24.98
2022-08-10T15:17:49.711Z,24.80
2022-08-10T15:24:54.364Z,24.96
2022-08-10T15:31:56.191Z,24.90
2022-08-10T15:39:01.776Z,24.60
2022-08-10T15:46:05.538Z,24.40
2022-08-10T15:53:15.851Z,24.46
2022-08-10T16:00:17.061Z,24.50
2022-08-10T16:07:11.802Z,24.60
2022-08-10T16:14:19.303Z,24.60
2022-08-10T16:21:22.300Z,24.46
2022-08-10T16:28:25.172Z,24.30
2022-08-10T16:35:19.614Z,24.30
2022-08-10T16:42:17.694Z,24.20
2022-08-10T16:48:53.327Z,24.10
2022-08-10T16:55:56.076Z,24.00
2022-08-10T17:02:59.247Z,23.90
2022-08-10T17:09:43.966Z,23.70
2022-08-10T17:16:27.310Z,23.52
2022-08-10T17:23:40.000Z,23.40
2022-08-10T17:30:57.847Z,23.26
2022-08-10T17:38:01.880Z,23.10
2022-08-10T17:44:18.236Z,22.90
2022-08-10T17:51:04.008Z,22.80
2022-08-10T17:58:10.565Z,22.70
2022-08-10T18:04:20.601Z,22.50
2022-08-10T18:11:11.401Z,22.30
2022-08-10T18:18:26.747Z,22.16
2022-08-10T18:25:32.793Z,22.00
2022-08-10T18:32:19.049Z,21.80
2022-08-10T18:39:12.257Z,21.60
2022-08-10T18:46:02.538Z,21.40
2022-08-10T18:53:05.756Z,21.20
2022-08-10T19:00:26.671Z,21.00
2022-08-10T19:07:36.975Z,20.80
2022-08-10T19:14:36.653Z,20.60
2022-08-10T19:21:32.345Z,20.40
2022-08-10T19:28:52.265Z,20.28
2022-08-10T19:36:03.839Z,20.10
2022-08-10T19:43:11.077Z,19.90
2022-08-10T19:49:39.773Z,19.60
2022-08-10T19:56:41.913Z,19.50
2022-08-10T20:03:45.000Z,19.30
2022-08-10T20:10:48.182Z,19.20
2022-08-10T20:17:55.733Z,19.00
2022-08-10T20:25:14.421Z,18.84
2022-08-10T20:32:23.529Z,18.74
2022-08-10T20:39:30.776Z,18.70
2022-08-10T20:46:46.657Z,18.70
2022-08-10T20:53:53.058Z,18.60
2022-08-10T21:01:02.547Z,18.60
2022-08-10T21:08:30.160Z,18.60
2022-08-10T21:15:45.355Z,18.60
2022-08-10T21:23:05.543Z,18.60
2022-08-10T21:30:09.125Z,18.50
2022-08-10T21:37:01.336Z,18.50
2022-08-10T21:44:06.226Z,18.44
2022-08-10T21:51:16.465Z,18.40
2022-08-10T21:58:41.748Z,18.30
2022-08-10T22:05:42.010Z,18.30
2022-08-10T22:12:46.757Z,18.20
2022-08-10T22:19:48.716Z,18.10
2022-08-10T22:27:01.266Z,18.10
2022-08-10T22:34:21.288Z,18.00
2022-08-10T22:41:34.829Z,17.90
2022-08-10T22:48:16.129Z,17.80
2022-08-10T22:55:05.565Z,17.70
2022-08-10T23:02:09.000Z,17.60
2022-08-10T23:09:15.679Z,17.50
2022-08-10T23:16:22.946Z,17.40
2022-08-10T23:23:30.348Z,17.34
2022-08-10T23:30:33.731Z,17.20
2022-08-10T23:37:36.774Z,17.10
2022-08-10T23:44:28.559Z,17.00
2022-08-10T23:51:54.704Z,16.82
2022-08-10T23:58:54.591Z,16.70
